Time;durP1;ratioP1;P1;durP2;ratioP2;P2;SDS_P1;SDS_P2;PMS_P1;PMS_P2;Temp;Humidity;BMP_temperature;BMP_pressure;BME280_temperature;BME280_humidity;BME280_pressure;Samples;Min_cycle;Max_cycle;Signal;HPM_P1;HPM_P2
2023/10/29 00:02:18;;;;;;;2.53;1.00;;;13.60;99.90;;;13.64;100.00;98967.72;5247151;28;20044;-47
2023/10/29 00:04:50;;;;;;;3.30;0.90;;;13.60;99.90;;;13.64;100.00;98979.03;5246524;28;20067;-49
2023/10/29 00:07:23;;;;;;;1.05;1.00;;;13.60;99.90;;;13.66;100.00;98979.91;5248270;28;20298;-47
2023/10/29 00:09:56;;;;;;;1.63;1.00;;;13.60;99.90;;;13.71;100.00;98993.84;5250484;28;20052;-48
2023/10/29 00:12:29;;;;;;;1.63;1.10;;;13.60;99.90;;;13.73;100.00;98992.06;5249943;28;20189;-46
2023/10/29 00:15:01;;;;;;;1.70;1.10;;;13.70;99.90;;;13.76;100.00;98981.59;5246072;28;20052;-47
2023/10/29 00:17:33;;;;;;;1.52;1.02;;;13.70;99.90;;;13.83;100.00;98972.81;5246497;28;20047;-47
2023/10/29 00:20:07;;;;;;;1.30;0.85;;;13.70;99.90;;;13.83;100.00;98983.28;5242764;28;20498;-47
2023/10/29 00:22:39;;;;;;;2.08;0.90;;;13.70;99.90;;;13.80;100.00;98980.66;5265096;28;20547;-46
2023/10/29 00:25:13;;;;;;;2.80;1.00;;;13.70;99.90;;;13.79;100.00;98960.59;5248585;28;20415;-48
2023/10/29 00:27:45;;;;;;;1.20;0.93;;;13.70;99.90;;;13.84;100.00;98966.69;5250333;28;20051;-47
2023/10/29 00:30:18;;;;;;;1.30;0.90;;;13.80;99.90;;;13.84;100.00;98985.00;5248290;28;20093;-48
2023/10/29 00:32:50;;;;;;;2.63;1.23;;;13.70;99.90;;;13.86;100.00;98979.75;5245105;28;20602;-47
2023/10/29 00:35:23;;;;;;;1.83;1.10;;;13.80;99.90;;;13.87;100.00;98957.91;5251788;28;20051;-47
2023/10/29 00:37:55;;;;;;;1.95;0.90;;;13.80;99.90;;;13.86;100.00;98964.03;5263967;28;20051;-48
2023/10/29 00:40:30;;;;;;;3.00;1.08;;;13.80;99.90;;;13.85;100.00;98976.28;5271427;28;20513;-47
2023/10/29 00:43:04;;;;;;;2.65;1.10;;;13.80;99.90;;;13.82;100.00;98972.78;5247106;28;20047;-48
2023/10/29 00:45:37;;;;;;;3.63;1.17;;;13.80;99.90;;;13.83;100.00;98971.94;5240090;28;20044;-48
2023/10/29 00:48:11;;;;;;;2.13;1.00;;;13.80;99.90;;;13.88;100.00;98964.03;5246944;28;20411;-49
2023/10/29 00:50:44;;;;;;;3.03;1.10;;;13.80;99.90;;;13.85;100.00;98947.47;5249266;28;20044;-47
2023/10/29 00:53:16;;;;;;;2.60;1.05;;;13.80;99.90;;;13.87;100.00;98965.78;5253634;28;20040;-47
2023/10/29 00:55:51;;;;;;;2.78;1.10;;;13.80;99.90;;;13.85;100.00;98950.09;5249139;28;20036;-46
2023/10/29 00:58:25;;;;;;;;;;;13.80;99.90;;;13.84;100.00;98963.19;5248252;28;20043;-46
2023/10/29 01:00:57;;;;;;;1.88;1.10;;;13.80;99.90;;;13.85;100.00;98951.84;5261665;28;19930;-48
2023/10/29 01:03:30;;;;;;;1.10;0.90;;;13.80;99.90;;;13.85;100.00;98947.47;5244436;28;20059;-48
2023/10/29 01:06:02;;;;;;;1.25;0.82;;;13.80;99.90;;;13.85;100.00;98939.59;5244350;28;20537;-47
2023/10/29 01:08:35;;;;;;;2.58;0.95;;;13.80;99.90;;;13.88;100.00;98943.06;5246494;28;20523;-47
2023/10/29 01:11:09;;;;;;;1.33;0.85;;;13.80;99.90;;;13.90;100.00;98917.75;5245932;28;20044;-47
2023/10/29 01:13:42;;;;;;;4.20;0.95;;;13.80;99.90;;;13.99;100.00;98925.53;5246217;28;20048;-47
2023/10/29 01:16:14;;;;;;;2.25;0.93;;;13.80;99.90;;;13.94;100.00;98914.22;5247450;28;20047;-47
2023/10/29 01:18:47;;;;;;;2.55;1.13;;;13.90;99.90;;;13.96;100.00;98923.81;5243191;28;20534;-47
2023/10/29 01:21:19;;;;;;;1.63;0.80;;;13.90;99.90;;;14.01;100.00;98926.38;5246454;28;20530;-47
2023/10/29 01:23:53;;;;;;;3.33;1.00;;;13.90;99.90;;;14.00;100.00;98912.41;5250696;28;20056;-47
2023/10/29 01:26:27;;;;;;;3.00;0.90;;;13.90;99.90;;;13.98;100.00;98924.66;5248588;28;20056;-47
2023/10/29 01:29:04;;;;;;;1.35;0.93;;;13.90;99.90;;;14.03;100.00;98917.63;5243425;28;20047;-48
2023/10/29 01:31:36;;;;;;;2.58;1.00;;;14.00;99.90;;;14.06;100.00;98933.31;5232162;28;20139;-47
2023/10/29 01:34:09;;;;;;;1.90;0.95;;;13.90;99.90;;;14.09;100.00;98932.44;5235121;28;20037;-47
2023/10/29 01:36:41;;;;;;;1.55;0.98;;;13.90;99.90;;;14.10;100.00;98940.28;5238574;28;20043;-47
2023/10/29 01:39:14;;;;;;;1.38;0.90;;;14.00;99.90;;;14.10;100.00;98935.03;5241994;28;20041;-47
2023/10/29 01:41:47;;;;;;;1.85;0.90;;;14.00;99.90;;;14.14;100.00;98933.25;5244244;28;20094;-47
2023/10/29 01:44:20;;;;;;;2.92;0.65;;;14.00;99.90;;;14.11;100.00;98936.78;5245478;28;20142;-47
2023/10/29 01:46:56;;;;;;;1.58;0.93;;;14.00;99.90;;;14.10;100.00;98935.03;5243032;28;20040;-48
2023/10/29 01:49:28;;;;;;;2.85;1.05;;;14.00;99.90;;;14.11;100.00;98925.44;5242099;28;20419;-46
2023/10/29 01:52:00;;;;;;;1.30;0.82;;;14.00;99.90;;;14.11;100.00;98933.28;5245513;28;20044;-48
2023/10/29 01:54:33;;;;;;;2.60;1.00;;;14.00;99.90;;;14.11;100.00;98926.28;5245008;28;20055;-48
2023/10/29 01:57:07;;;;;;;1.77;1.02;;;14.00;99.90;;;14.12;100.00;98907.06;5257012;28;20036;-47
2023/10/29 01:59:40;;;;;;;0.77;0.73;;;14.00;99.90;;;14.14;100.00;98899.19;5243745;28;20060;-47
2023/10/29 02:02:12;;;;;;;1.98;0.80;;;14.00;99.90;;;14.11;100.00;98894.00;5245626;28;20044;-47
2023/10/29 02:04:44;;;;;;;4.20;1.10;;;14.00;99.90;;;14.11;100.00;98878.28;5243791;28;20057;-47
2023/10/29 02:07:17;;;;;;;0.90;0.63;;;14.00;99.90;;;14.13;100.00;98879.09;5247683;28;20048;-47
2023/10/29 02:09:50;;;;;;;2.55;1.30;;;14.00;99.90;;;14.17;100.00;98891.31;5247921;28;20048;-47
2023/10/29 02:12:24;;;;;;;2.08;1.10;;;14.10;99.90;;;14.18;100.00;98898.28;5249442;28;20052;-47
2023/10/29 02:14:59;;;;;;;2.35;0.90;;;14.10;99.90;;;14.21;100.00;98900.84;5248623;28;20579;-47
2023/10/29 02:17:31;;;;;;;2.85;0.82;;;14.10;99.90;;;14.22;100.00;98886.91;5249076;28;20048;-48
2023/10/29 02:20:06;;;;;;;2.75;0.88;;;14.10;99.90;;;14.20;100.00;98890.41;5243405;28;20354;-47
2023/10/29 02:22:40;;;;;;;;;;;14.10;99.90;;;14.19;100.00;98891.28;5248103;28;20075;-47
2023/10/29 02:25:14;;;;;;;1.85;0.80;;;14.10;99.90;;;14.16;100.00;98889.56;5248795;28;20376;-47
2023/10/29 02:27:46;;;;;;;1.08;0.75;;;14.10;99.90;;;14.10;100.00;98884.41;5262147;28;20052;-49
2023/10/29 02:30:19;;;;;;;1.60;0.80;;;14.10;99.90;;;14.09;100.00;98886.16;5247602;28;20054;-47
2023/10/29 02:32:54;;;;;;;1.15;0.80;;;14.00;99.90;;;14.09;100.00;98880.03;5249712;28;20054;-48
2023/10/29 02:35:26;;;;;;;3.00;1.00;;;14.00;99.90;;;14.07;100.00;98876.53;5248854;28;20507;-47
2023/10/29 02:38:00;;;;;;;1.83;0.73;;;14.00;99.90;;;14.06;100.00;98878.31;5250060;28;20043;-47
2023/10/29 02:40:33;;;;;;;1.83;0.90;;;14.00;99.90;;;14.12;100.00;98866.91;5248335;28;20048;-47
2023/10/29 02:43:10;;;;;;;3.17;1.30;;;14.00;99.90;;;14.08;100.00;98863.47;5244370;28;20430;-47
2023/10/29 02:45:42;;;;;;;2.35;0.90;;;14.00;99.90;;;14.07;100.00;98868.69;5249307;28;20505;-47
2023/10/29 02:48:15;;;;;;;2.85;0.70;;;14.00;99.90;;;14.07;100.00;98874.78;5248889;28;20039;-47
2023/10/29 02:50:48;;;;;;;2.20;0.80;;;14.00;99.90;;;14.09;100.00;98859.09;5262164;28;20401;-47
2023/10/29 02:53:21;;;;;;;1.10;0.90;;;14.00;99.90;;;14.10;100.00;98872.16;5249884;28;20311;-47
2023/10/29 02:55:58;;;;;;;1.48;0.80;;;14.00;99.90;;;14.12;100.00;98872.13;5249328;28;20048;-45
2023/10/29 02:58:30;;;;;;;2.38;0.80;;;14.00;99.90;;;14.13;100.00;98850.28;5246415;28;20049;-45
2023/10/29 03:01:07;;;;;;;0.90;0.65;;;14.00;99.90;;;14.13;100.00;98840.69;5248902;28;20414;-46
2023/10/29 03:03:40;;;;;;;1.75;0.75;;;14.00;99.90;;;14.15;100.00;98853.78;5264368;28;20055;-47
2023/10/29 03:06:13;;;;;;;1.58;0.73;;;14.00;99.90;;;14.21;100.00;98842.34;5248190;28;20049;-46
2023/10/29 03:08:47;;;;;;;1.60;0.80;;;14.10;99.90;;;14.20;100.00;98857.19;5244121;28;20093;-46
2023/10/29 03:11:19;;;;;;;2.72;0.70;;;14.10;99.90;;;14.27;100.00;98843.16;5247852;28;20048;-46
2023/10/29 03:13:51;;;;;;;1.33;0.70;;;14.10;99.90;;;14.26;100.00;98845.78;5247794;28;20287;-47
2023/10/29 03:16:24;;;;;;;1.17;0.65;;;14.10;99.90;;;14.26;100.00;98844.03;5266288;28;20044;-46
2023/10/29 03:19:00;;;;;;;1.45;0.70;;;14.10;99.90;;;14.24;100.00;98837.94;5246296;28;20093;-46
2023/10/29 03:21:32;;;;;;;1.60;0.68;;;14.10;99.90;;;14.22;100.00;98829.25;5245657;28;20510;-47
2023/10/29 03:24:07;;;;;;;1.35;0.70;;;14.10;99.90;;;14.24;100.00;98814.38;5242089;28;20048;-48
2023/10/29 03:26:39;;;;;;;2.10;1.00;;;14.10;99.90;;;14.25;100.00;98808.25;5247665;28;20058;-46
2023/10/29 03:29:12;;;;;;;2.42;0.80;;;14.10;99.90;;;14.23;100.00;98817.88;5247826;28;20072;-47
2023/10/29 03:31:44;;;;;;;1.00;0.57;;;14.10;99.90;;;14.21;100.00;98822.25;5247073;28;20413;-47
2023/10/29 03:34:16;;;;;;;1.40;0.60;;;14.10;99.90;;;14.18;100.00;98830.16;5248062;28;20507;-45
2023/10/29 03:36:49;;;;;;;1.55;0.70;;;14.10;99.90;;;14.16;100.00;98823.22;5246712;28;20056;-47
2023/10/29 03:39:22;;;;;;;2.20;0.70;;;14.10;99.90;;;14.17;100.00;98846.75;5246877;28;20040;-48
2023/10/29 03:41:55;;;;;;;0.73;0.43;;;14.10;99.90;;;14.15;100.00;98832.81;5255981;28;20051;-48
2023/10/29 03:44:27;;;;;;;1.90;0.70;;;14.10;99.90;;;14.17;100.00;98846.75;5273462;28;20487;-46
2023/10/29 03:47:03;;;;;;;1.98;0.77;;;14.10;99.90;;;14.19;100.00;98850.22;5256139;28;20044;-46
2023/10/29 03:49:35;;;;;;;1.75;0.60;;;14.10;99.90;;;14.21;100.00;98843.22;5247997;28;20060;-46
2023/10/29 03:52:07;;;;;;;2.72;0.73;;;14.10;99.90;;;14.20;100.00;98825.75;5251135;28;20430;-47
2023/10/29 03:54:41;;;;;;;1.67;0.68;;;14.10;99.90;;;14.21;100.00;98831.88;5251771;28;20051;-46
2023/10/29 03:57:14;;;;;;;2.30;1.20;;;14.10;99.90;;;14.21;100.00;98829.25;5247299;28;20043;-46
2023/10/29 03:59:46;;;;;;;2.47;1.40;;;14.10;99.90;;;14.21;100.00;98816.16;5244303;28;20047;-47
2023/10/29 04:02:18;;;;;;;1.80;1.08;;;14.10;99.90;;;14.21;100.00;98842.34;5246536;28;20048;-46
2023/10/29 04:04:51;;;;;;;2.70;1.52;;;14.10;99.90;;;14.22;100.00;98839.72;5249789;28;20052;-47
2023/10/29 04:07:24;;;;;;;2.92;1.65;;;14.10;99.90;;;14.22;100.00;98831.88;5250024;28;20079;-47
2023/10/29 04:10:00;;;;;;;3.47;1.48;;;14.10;99.90;;;14.24;100.00;98800.41;5248498;28;20062;-46
2023/10/29 04:12:33;;;;;;;4.32;1.73;;;14.20;99.90;;;14.24;100.00;98801.25;5255752;28;20040;-46
2023/10/29 04:15:06;;;;;;;1.10;0.95;;;14.20;99.90;;;14.25;100.00;98817.84;5266889;28;20043;-46
2023/10/29 04:17:38;;;;;;;0.90;0.75;;;14.10;99.90;;;14.27;100.00;98822.19;5245599;28;20066;-45
2023/10/29 04:20:11;;;;;;;2.38;0.70;;;14.10;99.90;;;14.27;100.00;98832.66;5246804;28;20044;-47
2023/10/29 04:22:44;;;;;;;1.20;0.50;;;14.20;99.90;;;14.30;100.00;98853.63;5246703;28;20044;-46
2023/10/29 04:25:18;;;;;;;2.05;0.73;;;14.20;99.90;;;14.29;100.00;98857.13;5247099;28;20040;-46
2023/10/29 04:27:50;;;;;;;1.55;0.77;;;14.20;99.90;;;14.32;100.00;98859.69;5247246;28;20059;-46
2023/10/29 04:30:22;;;;;;;0.80;0.60;;;14.20;99.90;;;14.35;100.00;98845.72;5249274;28;20075;-47
2023/10/29 04:32:58;;;;;;;0.98;0.57;;;14.20;99.90;;;14.36;100.00;98827.34;5245065;28;20056;-47
2023/10/29 04:35:31;;;;;;;1.08;0.60;;;14.20;99.90;;;14.37;100.00;98809.84;5245681;28;20430;-46
2023/10/29 04:38:03;;;;;;;1.35;0.80;;;14.30;99.90;;;14.40;100.00;98786.22;5244474;28;20071;-45
2023/10/29 04:40:37;;;;;;;1.40;0.63;;;14.30;99.90;;;14.50;100.00;98793.13;5245336;28;20056;-46
2023/10/29 04:43:12;;;;;;;2.22;0.73;;;14.30;99.90;;;14.48;100.00;98830.75;5252913;28;20052;-46
2023/10/29 04:45:45;;;;;;;1.35;0.63;;;14.30;99.90;;;14.48;100.00;98836.84;5244510;28;20067;-46
2023/10/29 04:48:17;;;;;;;2.08;1.00;;;14.30;99.90;;;14.50;100.00;98840.31;5250468;28;20051;-46
2023/10/29 04:50:49;;;;;;;2.15;0.60;;;14.40;99.90;;;14.57;100.00;98846.34;5246371;28;20056;-46
2023/10/29 04:53:25;;;;;;;2.20;0.63;;;14.40;99.90;;;14.61;100.00;98858.53;5249643;28;20040;-47
2023/10/29 04:55:58;;;;;;;1.20;0.70;;;14.40;99.90;;;14.66;100.00;98861.94;5248186;28;20759;-47
2023/10/29 04:58:32;;;;;;;1.83;0.75;;;14.50;99.90;;;14.66;100.00;98867.19;5248131;28;20047;-47
2023/10/29 05:01:08;;;;;;;2.10;0.63;;;14.50;99.90;;;14.70;100.00;98868.03;5270631;28;20043;-46
2023/10/29 05:03:41;;;;;;;1.02;0.60;;;14.50;99.90;;;14.70;100.00;98862.78;5244972;28;20109;-46
2023/10/29 05:06:19;;;;;;;1.23;0.60;;;14.50;99.90;;;14.69;100.00;98859.31;5245247;28;20481;-47
2023/10/29 05:08:51;;;;;;;1.58;0.63;;;14.60;99.90;;;14.70;100.00;98857.53;5254335;28;20411;-46
2023/10/29 05:11:25;;;;;;;1.42;0.70;;;14.50;99.90;;;14.83;100.00;98867.00;5245764;28;20052;-45
2023/10/29 05:13:58;;;;;;;0.63;0.60;;;14.60;99.90;;;14.99;100.00;98859.78;5251615;28;20522;-46
2023/10/29 05:16:30;;;;;;;1.67;0.63;;;14.70;99.90;;;14.89;100.00;98875.66;5257458;28;20055;-46
2023/10/29 05:19:03;;;;;;;1.83;0.75;;;14.70;99.90;;;14.85;100.00;98879.19;5256529;28;20051;-47
2023/10/29 05:21:35;;;;;;;2.13;0.77;;;14.70;99.90;;;14.84;100.00;98866.97;5247116;28;20055;-46
2023/10/29 05:24:09;;;;;;;2.33;0.52;;;14.70;99.90;;;14.89;100.00;98869.53;5249909;28;20558;-47
2023/10/29 05:26:43;;;;;;;2.92;0.70;;;14.70;99.90;;;14.99;100.00;98880.75;5242961;28;20181;-45
2023/10/29 05:29:16;;;;;;;1.65;0.50;;;14.80;99.90;;;14.95;100.00;98869.47;5249545;28;20044;-47
2023/10/29 05:31:48;;;;;;;4.13;0.60;;;14.80;99.90;;;14.95;100.00;98873.84;5247377;28;20105;-47
2023/10/29 05:34:21;;;;;;;1.40;1.02;;;14.80;99.90;;;14.97;100.00;98872.06;5253283;28;20048;-46
2023/10/29 05:36:53;;;;;;;1.13;0.55;;;14.80;99.90;;;15.01;100.00;98884.25;5251133;28;20115;-46
2023/10/29 05:39:26;;;;;;;0.73;0.55;;;14.80;99.90;;;15.01;100.00;98864.13;5249255;28;20139;-47
2023/10/29 05:41:59;;;;;;;2.70;0.60;;;14.80;99.90;;;15.11;100.00;98870.97;5247836;28;20113;-46
2023/10/29 05:44:33;;;;;;;1.13;0.70;;;14.80;99.90;;;15.17;100.00;98870.88;5246085;28;20047;-46
2023/10/29 05:47:05;;;;;;;1.23;0.65;;;14.90;99.90;;;15.17;100.00;98870.00;5256483;28;20048;-47
2023/10/29 05:49:38;;;;;;;3.47;0.70;;;15.00;99.90;;;15.10;100.00;98871.88;5245372;28;20052;-47
2023/10/29 05:52:10;;;;;;;0.93;0.60;;;14.90;99.90;;;15.15;100.00;98887.56;5245332;28;20544;-46
2023/10/29 05:54:42;;;;;;;1.17;0.80;;;15.00;99.90;;;15.08;100.00;98872.78;5244880;28;20404;-46
2023/10/29 05:57:19;;;;;;;1.35;0.45;;;14.90;99.90;;;15.11;100.00;98880.59;5242355;28;20384;-46
2023/10/29 05:59:52;;;;;;;3.03;0.55;;;14.90;99.90;;;15.08;100.00;98889.38;5251432;28;20048;-46
2023/10/29 06:02:24;;;;;;;0.63;0.60;;;14.90;99.90;;;15.06;100.00;98898.16;5244578;28;20350;-47
2023/10/29 06:04:57;;;;;;;2.03;0.63;;;14.90;99.90;;;15.04;100.00;98886.81;5246315;28;20044;-47
2023/10/29 06:07:29;;;;;;;1.10;0.50;;;14.80;99.90;;;15.00;100.00;98893.03;5247414;28;20616;-46
2023/10/29 06:10:01;;;;;;;3.10;0.88;;;14.80;99.90;;;14.95;100.00;98897.44;5248274;28;20418;-47
2023/10/29 06:12:35;;;;;;;6.22;0.82;;;14.90;99.90;;;15.00;100.00;98895.63;5244540;28;20048;-47
2023/10/29 06:15:11;;;;;;;1.23;0.68;;;14.80;99.90;;;14.99;100.00;98927.97;5242935;28;20044;-47
2023/10/29 06:17:43;;;;;;;1.20;0.50;;;14.80;99.90;;;15.04;100.00;98910.44;5245331;28;20048;-47
2023/10/29 06:20:17;;;;;;;3.25;0.85;;;14.80;99.90;;;15.04;100.00;98910.44;5252002;28;20554;-47
2023/10/29 06:22:49;;;;;;;2.13;0.60;;;14.80;99.90;;;15.04;100.00;98910.44;5243465;28;20158;-47
2023/10/29 06:25:22;;;;;;;3.40;0.60;;;14.80;99.90;;;15.00;100.00;98919.25;5245069;28;20044;-47
2023/10/29 06:27:55;;;;;;;3.85;0.60;;;14.80;99.90;;;14.99;100.00;98925.34;5245752;28;20048;-48
2023/10/29 06:30:28;;;;;;;1.35;0.55;;;14.80;99.90;;;14.99;100.00;98941.09;5244874;28;20044;-47
2023/10/29 06:33:02;;;;;;;0.98;0.50;;;14.80;99.90;;;14.91;100.00;98942.06;5246053;28;20352;-46
2023/10/29 06:35:34;;;;;;;0.57;0.50;;;14.80;99.90;;;14.90;100.00;98945.59;5247619;28;20114;-46
2023/10/29 06:38:07;;;;;;;3.03;0.75;;;14.70;99.90;;;14.97;100.00;98966.50;5243214;28;20063;-47
2023/10/29 06:40:39;;;;;;;2.47;0.60;;;14.80;99.90;;;14.98;100.00;98973.47;5263176;28;20056;-47
2023/10/29 06:43:16;;;;;;;1.70;0.55;;;14.80;99.90;;;15.08;100.00;98977.75;5247753;28;20518;-46
2023/10/29 06:45:49;;;;;;;0.98;0.50;;;14.80;99.90;;;15.13;100.00;98955.81;5247661;28;20054;-47
2023/10/29 06:48:22;;;;;;;1.25;0.45;;;14.90;99.90;;;15.05;100.00;98951.53;5245049;28;20135;-47
2023/10/29 06:50:55;;;;;;;0.63;0.50;;;14.80;99.90;;;15.01;100.00;98958.56;5243141;28;20594;-47
2023/10/29 06:53:27;;;;;;;2.47;0.45;;;14.80;99.90;;;15.00;100.00;98953.34;5249357;28;20463;-47
2023/10/29 06:56:02;;;;;;;0.93;0.38;;;14.80;99.90;;;14.98;100.00;98955.97;5253692;28;20089;-46
2023/10/29 06:58:36;;;;;;;1.50;0.80;;;14.80;99.90;;;14.90;100.00;98949.97;5251360;28;20064;-46
2023/10/29 07:01:10;;;;;;;0.70;0.35;;;14.80;99.90;;;14.93;100.00;98950.81;5247309;28;20146;-45
2023/10/29 07:03:43;;;;;;;1.35;0.70;;;14.80;99.90;;;14.88;100.00;98943.88;5247278;28;20514;-46
2023/10/29 07:06:16;;;;;;;0.95;0.57;;;14.80;99.90;;;14.87;100.00;98955.25;5247107;28;20139;-46
2023/10/29 07:08:48;;;;;;;0.90;0.47;;;14.70;99.90;;;14.88;100.00;98970.09;5248474;28;20676;-47
2023/10/29 07:11:20;;;;;;;2.25;0.50;;;14.70;99.90;;;14.88;100.00;98977.97;5250954;28;20055;-47
2023/10/29 07:13:54;;;;;;;1.02;0.63;;;14.70;99.90;;;14.91;100.00;98973.53;5241383;28;20055;-46
2023/10/29 07:16:26;;;;;;;1.00;0.60;;;14.70;99.90;;;14.98;100.00;98970.84;5250468;28;20443;-46
2023/10/29 07:18:59;;;;;;;1.77;0.50;;;14.80;99.90;;;14.97;100.00;98971.75;5246346;28;20058;-46
2023/10/29 07:21:34;;;;;;;1.77;1.33;;;14.80;99.90;;;14.91;100.00;98978.78;5245634;28;20047;-46
2023/10/29 07:24:08;;;;;;;1.13;0.70;;;14.70;99.90;;;14.93;100.00;98982.28;5246622;28;20040;-46
2023/10/29 07:26:41;;;;;;;2.15;0.55;;;14.80;99.90;;;14.93;100.00;98982.28;5246743;28;20538;-46
2023/10/29 07:29:15;;;;;;;0.50;0.50;;;14.80;99.90;;;14.91;100.00;98967.44;5246476;28;20063;-46
2023/10/29 07:31:48;;;;;;;1.50;0.50;;;14.80;99.90;;;14.90;100.00;98968.31;5245337;28;20044;-46
2023/10/29 07:34:20;;;;;;;0.98;0.43;;;14.70;99.90;;;14.91;100.00;98965.69;5250459;28;20072;-48
2023/10/29 07:36:52;;;;;;;2.72;0.73;;;14.70;99.90;;;14.94;100.00;98967.41;5247193;28;20514;-46
2023/10/29 07:39:28;;;;;;;2.47;0.57;;;14.80;99.90;;;14.99;100.00;98964.72;5247361;28;20082;-46
2023/10/29 07:42:02;;;;;;;2.75;0.50;;;14.80;99.90;;;15.04;100.00;98986.53;5248773;28;20062;-45
2023/10/29 07:44:36;;;;;;;1.25;0.70;;;14.80;99.90;;;15.06;100.00;98992.59;5249198;28;20048;-46
2023/10/29 07:47:08;;;;;;;0.88;0.60;;;14.90;99.90;;;15.16;100.00;98989.00;5247096;28;20135;-46
2023/10/29 07:49:42;;;;;;;0.93;0.50;;;14.90;99.90;;;15.14;100.00;98990.78;5249827;28;20082;-46
2023/10/29 07:52:15;;;;;;;1.85;0.65;;;14.90;99.90;;;15.21;100.00;99016.06;5246306;28;20063;-46
2023/10/29 07:54:47;;;;;;;1.83;0.70;;;15.00;99.90;;;15.22;100.00;99015.16;5245406;28;20523;-46
2023/10/29 07:57:23;;;;;;;3.25;0.70;;;15.00;99.90;;;15.30;100.00;99030.81;5249578;28;20043;-46
2023/10/29 07:59:57;;;;;;;1.08;0.40;;;15.10;99.90;;;15.35;100.00;99036.88;5263858;28;20060;-46
2023/10/29 08:02:31;;;;;;;0.60;0.60;;;15.10;99.90;;;15.42;100.00;99031.53;5261653;28;20056;-46
2023/10/29 08:05:07;;;;;;;0.90;0.32;;;15.20;99.90;;;15.62;100.00;99022.56;5246322;28;20530;-46
2023/10/29 08:07:40;;;;;;;1.15;0.40;;;15.30;99.90;;;15.96;100.00;99018.53;5248711;28;20436;-46
2023/10/29 08:10:13;;;;;;;0.70;0.50;;;15.40;99.90;;;16.30;100.00;99025.94;5246962;28;20059;-46
2023/10/29 08:12:45;;;;;;;1.17;0.57;;;15.70;99.90;;;16.85;100.00;99024.97;5246032;28;20507;-46
2023/10/29 08:15:19;;;;;;;1.40;0.65;;;16.10;99.90;;;17.24;100.00;99027.75;5247056;28;20036;-46
2023/10/29 08:17:52;;;;;;;1.05;0.60;;;16.50;99.90;;;17.50;100.00;99020.16;5244644;28;20499;-46
2023/10/29 08:20:24;;;;;;;1.73;0.57;;;16.80;99.90;;;17.59;100.00;99017.31;5239739;28;20121;-47
2023/10/29 08:22:56;;;;;;;2.25;0.60;;;16.90;99.90;;;17.65;100.00;99050.56;5247746;28;20122;-46
2023/10/29 08:25:29;;;;;;;1.30;0.60;;;17.00;99.90;;;17.38;100.00;99036.22;5244566;28;20101;-46
2023/10/29 08:28:01;;;;;;;0.85;0.50;;;16.90;99.90;;;17.10;100.00;99054.34;5246104;28;20048;-47
2023/10/29 08:30:35;;;;;;;0.68;0.47;;;16.80;99.90;;;16.89;100.00;99062.63;5245185;28;20055;-46
2023/10/29 08:33:07;;;;;;;1.90;0.80;;;16.70;99.90;;;16.74;100.00;99050.59;5243150;28;20040;-46
2023/10/29 08:35:44;;;;;;;2.38;0.60;;;16.50;99.90;;;16.62;100.00;99048.16;5243153;28;20063;-46
2023/10/29 08:38:16;;;;;;;3.45;0.77;;;16.40;99.90;;;16.44;100.00;99047.59;5246218;28;20074;-46
2023/10/29 08:40:49;;;;;;;1.05;0.55;;;16.20;99.90;;;16.32;100.00;99039.91;5245298;28;20058;-46
2023/10/29 08:43:21;;;;;;;1.38;0.50;;;16.10;99.90;;;16.28;100.00;99038.22;5265158;28;20032;-46
2023/10/29 08:45:55;;;;;;;1.63;0.55;;;16.10;99.90;;;16.27;100.00;99042.59;5245100;28;20324;-46
2023/10/29 08:48:28;;;;;;;1.17;0.63;;;16.00;99.90;;;16.27;100.00;99058.38;5241926;28;20473;-46
2023/10/29 08:51:00;;;;;;;1.30;0.57;;;16.00;99.90;;;16.20;100.00;99056.75;5242287;28;20055;-45
2023/10/29 08:53:33;;;;;;;1.67;0.50;;;15.90;99.90;;;16.13;100.00;99059.50;5244279;28;20418;-46
2023/10/29 08:56:07;;;;;;;1.83;0.50;;;15.90;99.90;;;16.08;100.00;99061.31;5246795;28;20075;-46
2023/10/29 08:58:39;;;;;;;0.47;0.43;;;15.80;99.90;;;16.08;100.00;99061.31;5269893;28;20048;-45
2023/10/29 09:01:13;;;;;;;1.13;0.68;;;15.80;99.90;;;15.99;100.00;99070.22;5244588;28;20047;-47
2023/10/29 09:03:45;;;;;;;2.00;0.50;;;15.80;99.90;;;16.04;100.00;99083.25;5244942;28;20048;-45
2023/10/29 09:06:20;;;;;;;0.60;0.50;;;15.80;99.90;;;15.98;100.00;99087.75;5246807;28;20955;-45
2023/10/29 09:08:52;;;;;;;0.73;0.50;;;15.80;99.90;;;15.92;100.00;99081.69;5244954;28;20101;-45
2023/10/29 09:11:25;;;;;;;1.60;0.55;;;15.70;99.90;;;15.87;100.00;99083.50;5246671;28;20052;-45
2023/10/29 09:13:57;;;;;;;3.15;0.50;;;15.60;99.90;;;15.77;100.00;99098.50;5245821;28;20499;-45
2023/10/29 09:16:31;;;;;;;0.57;0.45;;;15.60;99.90;;;15.74;100.00;99103.81;5251087;28;20158;-47
2023/10/29 09:19:04;;;;;;;1.02;0.50;;;15.60;99.90;;;15.80;100.00;99105.50;5244376;28;20066;-47
2023/10/29 09:21:36;;;;;;;1.20;0.50;;;15.60;99.90;;;15.74;100.00;99098.56;5242873;28;20079;-45
2023/10/29 09:24:09;;;;;;;2.63;0.60;;;15.50;99.90;;;15.73;100.00;99108.22;5245375;28;20049;-45
2023/10/29 09:26:42;;;;;;;0.88;0.43;;;15.50;99.90;;;15.79;100.00;99107.28;5248121;28;20048;-46
2023/10/29 09:29:14;;;;;;;2.60;0.40;;;15.60;99.90;;;15.90;100.00;99115.84;5248977;28;20118;-46
2023/10/29 09:31:48;;;;;;;1.20;0.45;;;15.60;99.90;;;16.06;100.00;99108.66;5246291;28;20059;-47
2023/10/29 09:34:20;;;;;;;2.15;0.50;;;15.70;99.90;;;15.99;100.00;99115.75;5245584;28;20055;-46
2023/10/29 09:36:53;;;;;;;0.57;0.43;;;15.70;99.90;;;16.05;100.00;99119.19;5244609;28;20519;-46
2023/10/29 09:39:26;;;;;;;1.75;0.47;;;15.70;99.90;;;15.95;100.00;99105.28;5247352;28;20583;-46
2023/10/29 09:42:08;;;;;;;2.65;0.63;;;15.70;99.90;;;15.94;100.00;99079.91;5248202;28;20576;-46
2023/10/29 09:44:42;;;;;;;2.67;0.75;;;15.70;99.90;;;15.83;100.00;99082.66;5248904;28;20515;-45
2023/10/29 09:47:17;;;;;;;1.77;0.63;;;15.70;99.90;;;15.82;100.00;99069.56;5247564;28;20051;-46
2023/10/29 09:49:51;;;;;;;0.98;0.32;;;15.60;99.90;;;15.74;100.00;99098.56;5243212;28;20455;-46
2023/10/29 09:52:28;;;;;;;3.92;0.73;;;15.60;99.90;;;15.77;100.00;99095.88;5246187;28;20055;-45
2023/10/29 09:55:02;;;;;;;1.40;0.65;;;15.60;99.90;;;15.70;100.00;99091.59;5249616;28;20060;-45
2023/10/29 09:57:35;;;;;;;1.23;0.55;;;15.50;99.90;;;15.70;100.00;99099.47;5247510;28;20047;-45
2023/10/29 10:00:10;;;;;;;1.52;0.55;;;15.50;99.90;;;15.76;100.00;99104.66;5250142;28;20052;-46
2023/10/29 10:02:55;;;;;;;1.33;0.75;;;15.50;99.90;;;15.83;100.00;99102.81;5266599;28;20174;-44
2023/10/29 10:05:30;;;;;;;1.45;0.57;;;15.60;99.90;;;15.88;100.00;99093.13;5247452;28;20509;-46
2023/10/29 10:08:06;;;;;;;2.30;0.73;;;15.60;99.90;;;15.91;100.00;99117.63;5246848;28;20051;-45
2023/10/29 10:10:40;;;;;;;2.05;0.63;;;15.70;99.90;;;15.92;100.00;99113.22;5243380;28;20055;-44
2023/10/29 10:13:14;;;;;;;1.13;0.60;;;15.70;99.90;;;16.04;100.00;99118.31;5247112;28;20055;-47
2023/10/29 10:15:48;;;;;;;0.45;0.35;;;15.70;99.90;;;15.98;100.00;99113.16;5242511;28;20041;-46
2023/10/29 10:18:22;;;;;;;1.55;0.52;;;15.70;99.90;;;15.97;100.00;99098.25;5243707;28;20090;-45
2023/10/29 10:20:58;;;;;;;1.48;0.73;;;15.70;99.90;;;15.95;100.00;99107.91;5244227;28;20052;-46
2023/10/29 10:23:47;;;;;;;0.32;0.32;;;15.70;99.90;;;15.94;100.00;99082.53;5245663;28;20293;-45
2023/10/29 10:26:29;;;;;;;2.88;0.82;;;15.70;99.90;;;15.91;100.00;99070.31;5240351;28;20143;-46
2023/10/29 10:29:04;;;;;;;2.08;0.70;;;15.70;99.90;;;15.96;100.00;99084.25;5245744;28;20047;-45
2023/10/29 10:31:36;;;;;;;1.35;0.40;;;15.70;99.90;;;16.01;100.00;99098.19;5243578;28;20079;-48
2023/10/29 10:34:15;;;;;;;1.15;0.52;;;15.70;99.90;;;15.98;100.00;99100.88;5251795;28;20048;-45
2023/10/29 10:36:49;;;;;;;1.25;0.50;;;15.70;99.90;;;15.89;100.00;99087.84;5246960;28;20036;-46
2023/10/29 10:39:22;;;;;;;1.42;0.55;;;15.70;99.90;;;15.87;100.00;99094.88;5250759;28;20139;-47